<?xml version="1.0" encoding="UTF-8" standalone="no" ?>
<gpx xmlns="http://www.topografix.com/GPX/1/1" xmlns:xsi="http://www.w3.org/2001/XMLSchema-instance" xsi:schemaLocation="http://www.topografix.com/GPX/1/1 http://www.topografix.com/GPX/1/1/gpx.xsd" version="1.1" creator="VisuGPX - https://www.visugpx.com">
  <metadata>
    <name>Boucle hivernale par le Col d'Aspin et Plo del Naou</name>
  </metadata>
  <wpt lat="42.93723" lon="0.30259">
    <ele>1166</ele>
    <name><![CDATA[Départ]]></name>
  </wpt>
  <wpt lat="42.94172" lon="0.31417">
    <ele>1267</ele>
    <name><![CDATA[A droite]]></name>
  </wpt>
  <wpt lat="42.94167" lon="0.31823">
    <ele>1368</ele>
    <name><![CDATA[A droite]]></name>
  </wpt>
  <wpt lat="42.94108" lon="0.31883">
    <ele>1387</ele>
    <name><![CDATA[A gauche]]></name>
  </wpt>
  <wpt lat="42.94212" lon="0.32722">
    <ele>1485</ele>
    <name><![CDATA[A droite]]></name>
  </wpt>
  <wpt lat="42.94012" lon="0.32369">
    <ele>1528</ele>
    <name><![CDATA[A Gauche]]></name>
  </wpt>
  <wpt lat="42.92716" lon="0.31716">
    <ele>1588</ele>
    <name><![CDATA[Tout droit en montant (1606m)]]></name>
  </wpt>
  <wpt lat="42.91939" lon="0.31361">
    <ele>1738</ele>
    <name><![CDATA[Sommet]]></name>
  </wpt>
  <wpt lat="42.91348" lon="0.30972">
    <ele>1592</ele>
    <name><![CDATA[A droite (1604m)]]></name>
  </wpt>
  <wpt lat="42.91014" lon="0.30307">
    <ele>1498</ele>
    <name><![CDATA[A droite dans la combe]]></name>
  </wpt>
  <wpt lat="42.91202" lon="0.29965">
    <ele>1422</ele>
    <name><![CDATA[Tout droit]]></name>
  </wpt>
  <wpt lat="42.91271" lon="0.29792">
    <ele>1404</ele>
    <name><![CDATA[A droite après le pont]]></name>
  </wpt>
  <wpt lat="42.92719" lon="0.296">
    <ele>1244</ele>
    <name><![CDATA[Intersection piste. Vers le lac et le pont de l']]></name>
  </wpt>
  <wpt lat="42.93721" lon="0.3026">
    <ele>1166</ele>
    <name><![CDATA[Arrivée]]></name>
  </wpt>
  <trk>
    <name><![CDATA[Boucle hivernale par le Col d'Aspin et Plo del Naou]]></name>
    <trkseg>
      <trkpt lat="42.93723" lon="0.30259">
        <ele>1166</ele>
        <time>2016-01-21T09:37:04+01:00</time>
      </trkpt>
      <trkpt lat="42.9374" lon="0.30308">
        <ele>1166</ele>
        <time>2016-01-21T09:43:29+01:00</time>
      </trkpt>
      <trkpt lat="42.93756" lon="0.30356">
        <ele>1166</ele>
        <time>2016-01-21T09:44:01+01:00</time>
      </trkpt>
      <trkpt lat="42.93758" lon="0.30407">
        <ele>1166</ele>
        <time>2016-01-21T09:44:35+01:00</time>
      </trkpt>
      <trkpt lat="42.93763" lon="0.30459">
        <ele>1167</ele>
        <time>2016-01-21T09:45:11+01:00</time>
      </trkpt>
      <trkpt lat="42.93769" lon="0.30508">
        <ele>1169</ele>
        <time>2016-01-21T09:50:46+01:00</time>
      </trkpt>
      <trkpt lat="42.93777" lon="0.30557">
        <ele>1172</ele>
        <time>2016-01-21T09:51:32+01:00</time>
      </trkpt>
      <trkpt lat="42.93786" lon="0.3061">
        <ele>1176</ele>
        <time>2016-01-21T09:52:10+01:00</time>
      </trkpt>
      <trkpt lat="42.93788" lon="0.30661">
        <ele>1179</ele>
        <time>2016-01-21T09:52:45+01:00</time>
      </trkpt>
      <trkpt lat="42.93789" lon="0.30717">
        <ele>1182</ele>
        <time>2016-01-21T09:54:32+01:00</time>
      </trkpt>
      <trkpt lat="42.93782" lon="0.30769">
        <ele>1184</ele>
        <time>2016-01-21T09:55:08+01:00</time>
      </trkpt>
      <trkpt lat="42.93768" lon="0.30822">
        <ele>1186</ele>
        <time>2016-01-21T09:56:29+01:00</time>
      </trkpt>
      <trkpt lat="42.93759" lon="0.30873">
        <ele>1188</ele>
        <time>2016-01-21T09:57:04+01:00</time>
      </trkpt>
      <trkpt lat="42.93752" lon="0.30926">
        <ele>1191</ele>
        <time>2016-01-21T09:58:41+01:00</time>
      </trkpt>
      <trkpt lat="42.93772" lon="0.30978">
        <ele>1194</ele>
        <time>2016-01-21T09:59:18+01:00</time>
      </trkpt>
      <trkpt lat="42.93801" lon="0.31027">
        <ele>1196</ele>
        <time>2016-01-21T09:59:58+01:00</time>
      </trkpt>
      <trkpt lat="42.93831" lon="0.31076">
        <ele>1196</ele>
        <time>2016-01-21T10:00:39+01:00</time>
      </trkpt>
      <trkpt lat="42.93859" lon="0.31129">
        <ele>1200</ele>
        <time>2016-01-21T10:01:24+01:00</time>
      </trkpt>
      <trkpt lat="42.93873" lon="0.31193">
        <ele>1201</ele>
        <time>2016-01-21T10:02:06+01:00</time>
      </trkpt>
      <trkpt lat="42.93889" lon="0.31252">
        <ele>1203</ele>
        <time>2016-01-21T10:02:47+01:00</time>
      </trkpt>
      <trkpt lat="42.93911" lon="0.31297">
        <ele>1212</ele>
        <time>2016-01-21T10:03:24+01:00</time>
      </trkpt>
      <trkpt lat="42.93928" lon="0.31349">
        <ele>1224</ele>
        <time>2016-01-21T10:04:06+01:00</time>
      </trkpt>
      <trkpt lat="42.93961" lon="0.3139">
        <ele>1236</ele>
        <time>2016-01-21T10:04:48+01:00</time>
      </trkpt>
      <trkpt lat="42.93986" lon="0.31414">
        <ele>1241</ele>
        <time>2016-01-21T10:07:25+01:00</time>
      </trkpt>
      <trkpt lat="42.94026" lon="0.31401">
        <ele>1243</ele>
        <time>2016-01-21T10:09:15+01:00</time>
      </trkpt>
      <trkpt lat="42.94062" lon="0.31386">
        <ele>1248</ele>
        <time>2016-01-21T10:09:56+01:00</time>
      </trkpt>
      <trkpt lat="42.94104" lon="0.31381">
        <ele>1255</ele>
        <time>2016-01-21T10:10:44+01:00</time>
      </trkpt>
      <trkpt lat="42.9415" lon="0.31394">
        <ele>1264</ele>
        <time>2016-01-21T10:13:16+01:00</time>
      </trkpt>
      <trkpt lat="42.94172" lon="0.31417">
        <ele>1267</ele>
      </trkpt>
      <trkpt lat="42.94157" lon="0.31442">
        <ele>1268</ele>
        <time>2016-01-21T10:14:52+01:00</time>
      </trkpt>
      <trkpt lat="42.94109" lon="0.31471">
        <ele>1268</ele>
        <time>2016-01-21T10:15:41+01:00</time>
      </trkpt>
      <trkpt lat="42.94059" lon="0.31532">
        <ele>1275</ele>
        <time>2016-01-21T10:16:58+01:00</time>
      </trkpt>
      <trkpt lat="42.94084" lon="0.31556">
        <ele>1286</ele>
        <time>2016-01-21T10:18:25+01:00</time>
      </trkpt>
      <trkpt lat="42.94127" lon="0.3158">
        <ele>1291</ele>
        <time>2016-01-21T10:19:52+01:00</time>
      </trkpt>
      <trkpt lat="42.94162" lon="0.31618">
        <ele>1301</ele>
        <time>2016-01-21T10:21:28+01:00</time>
      </trkpt>
      <trkpt lat="42.94182" lon="0.31651">
        <ele>1307</ele>
      </trkpt>
      <trkpt lat="42.94162" lon="0.31677">
        <ele>1317</ele>
        <time>2016-01-21T10:22:57+01:00</time>
      </trkpt>
      <trkpt lat="42.94127" lon="0.31704">
        <ele>1327</ele>
        <time>2016-01-21T10:28:31+01:00</time>
      </trkpt>
      <trkpt lat="42.94164" lon="0.31766">
        <ele>1347</ele>
        <time>2016-01-21T10:29:54+01:00</time>
      </trkpt>
      <trkpt lat="42.94167" lon="0.31823">
        <ele>1368</ele>
        <time>2016-01-21T10:46:50+01:00</time>
      </trkpt>
      <trkpt lat="42.94116" lon="0.31837">
        <ele>1373</ele>
      </trkpt>
      <trkpt lat="42.94108" lon="0.31883">
        <ele>1387</ele>
        <time>2016-01-21T10:50:11+01:00</time>
      </trkpt>
      <trkpt lat="42.94127" lon="0.31917">
        <ele>1397</ele>
        <time>2016-01-21T11:00:21+01:00</time>
      </trkpt>
      <trkpt lat="42.94156" lon="0.31964">
        <ele>1407</ele>
        <time>2016-01-21T11:01:06+01:00</time>
      </trkpt>
      <trkpt lat="42.94168" lon="0.32025">
        <ele>1418</ele>
        <time>2016-01-21T11:01:56+01:00</time>
      </trkpt>
      <trkpt lat="42.94176" lon="0.32087">
        <ele>1426</ele>
        <time>2016-01-21T11:02:39+01:00</time>
      </trkpt>
      <trkpt lat="42.9419" lon="0.32145">
        <ele>1426</ele>
        <time>2016-01-21T11:03:17+01:00</time>
      </trkpt>
      <trkpt lat="42.94184" lon="0.32205">
        <ele>1438</ele>
        <time>2016-01-21T11:05:51+01:00</time>
      </trkpt>
      <trkpt lat="42.94199" lon="0.32262">
        <ele>1436</ele>
        <time>2016-01-21T11:06:29+01:00</time>
      </trkpt>
      <trkpt lat="42.94205" lon="0.32324">
        <ele>1441</ele>
        <time>2016-01-21T11:07:17+01:00</time>
      </trkpt>
      <trkpt lat="42.94215" lon="0.32391">
        <ele>1446</ele>
        <time>2016-01-21T11:09:17+01:00</time>
      </trkpt>
      <trkpt lat="42.94216" lon="0.32442">
        <ele>1455</ele>
        <time>2016-01-21T11:09:55+01:00</time>
      </trkpt>
      <trkpt lat="42.9422" lon="0.32492">
        <ele>1462</ele>
        <time>2016-01-21T11:10:32+01:00</time>
      </trkpt>
      <trkpt lat="42.94229" lon="0.32544">
        <ele>1468</ele>
        <time>2016-01-21T11:11:12+01:00</time>
      </trkpt>
      <trkpt lat="42.94238" lon="0.32595">
        <ele>1475</ele>
        <time>2016-01-21T11:11:57+01:00</time>
      </trkpt>
      <trkpt lat="42.94246" lon="0.32646">
        <ele>1479</ele>
        <time>2016-01-21T11:12:43+01:00</time>
      </trkpt>
      <trkpt lat="42.94242" lon="0.32692">
        <ele>1483</ele>
        <time>2016-01-21T11:13:24+01:00</time>
      </trkpt>
      <trkpt lat="42.94212" lon="0.32722">
        <ele>1485</ele>
        <time>2016-01-21T11:14:02+01:00</time>
      </trkpt>
      <trkpt lat="42.94193" lon="0.32717">
        <ele>1487</ele>
        <time>2016-01-21T11:25:33+01:00</time>
      </trkpt>
      <trkpt lat="42.94164" lon="0.32684">
        <ele>1492</ele>
        <time>2016-01-21T11:26:09+01:00</time>
      </trkpt>
      <trkpt lat="42.94133" lon="0.32658">
        <ele>1503</ele>
        <time>2016-01-21T11:26:49+01:00</time>
      </trkpt>
      <trkpt lat="42.94119" lon="0.32613">
        <ele>1510</ele>
        <time>2016-01-21T11:27:26+01:00</time>
      </trkpt>
      <trkpt lat="42.94098" lon="0.32572">
        <ele>1520</ele>
        <time>2016-01-21T11:28:07+01:00</time>
      </trkpt>
      <trkpt lat="42.9408" lon="0.32524">
        <ele>1529</ele>
        <time>2016-01-21T11:28:50+01:00</time>
      </trkpt>
      <trkpt lat="42.94068" lon="0.32473">
        <ele>1533</ele>
        <time>2016-01-21T11:29:35+01:00</time>
      </trkpt>
      <trkpt lat="42.9405" lon="0.32424">
        <ele>1533</ele>
        <time>2016-01-21T11:30:30+01:00</time>
      </trkpt>
      <trkpt lat="42.94012" lon="0.32369">
        <ele>1528</ele>
        <time>2016-01-21T11:31:54+01:00</time>
      </trkpt>
      <trkpt lat="42.93939" lon="0.32367">
        <ele>1537</ele>
        <time>2016-01-21T11:35:50+01:00</time>
      </trkpt>
      <trkpt lat="42.93872" lon="0.32348">
        <ele>1543</ele>
        <time>2016-01-21T11:36:59+01:00</time>
      </trkpt>
      <trkpt lat="42.93825" lon="0.32314">
        <ele>1542</ele>
        <time>2016-01-21T11:37:50+01:00</time>
      </trkpt>
      <trkpt lat="42.93781" lon="0.32289">
        <ele>1544</ele>
        <time>2016-01-21T11:38:33+01:00</time>
      </trkpt>
      <trkpt lat="42.93738" lon="0.32268">
        <ele>1544</ele>
        <time>2016-01-21T11:39:19+01:00</time>
      </trkpt>
      <trkpt lat="42.93654" lon="0.32284">
        <ele>1557</ele>
        <time>2016-01-21T11:43:07+01:00</time>
      </trkpt>
      <trkpt lat="42.93602" lon="0.32259">
        <ele>1547</ele>
        <time>2016-01-21T11:44:06+01:00</time>
      </trkpt>
      <trkpt lat="42.93564" lon="0.32235">
        <ele>1541</ele>
        <time>2016-01-21T11:44:45+01:00</time>
      </trkpt>
      <trkpt lat="42.93514" lon="0.32207">
        <ele>1544</ele>
        <time>2016-01-21T11:45:38+01:00</time>
      </trkpt>
      <trkpt lat="42.93467" lon="0.32176">
        <ele>1551</ele>
        <time>2016-01-21T11:46:27+01:00</time>
      </trkpt>
      <trkpt lat="42.93421" lon="0.32146">
        <ele>1562</ele>
        <time>2016-01-21T11:47:09+01:00</time>
      </trkpt>
      <trkpt lat="42.93382" lon="0.32112">
        <ele>1570</ele>
        <time>2016-01-21T11:47:49+01:00</time>
      </trkpt>
      <trkpt lat="42.93341" lon="0.32077">
        <ele>1582</ele>
        <time>2016-01-21T11:48:30+01:00</time>
      </trkpt>
      <trkpt lat="42.93308" lon="0.32042">
        <ele>1585</ele>
        <time>2016-01-21T11:51:00+01:00</time>
      </trkpt>
      <trkpt lat="42.93288" lon="0.31996">
        <ele>1585</ele>
        <time>2016-01-21T11:51:56+01:00</time>
      </trkpt>
      <trkpt lat="42.93277" lon="0.31944">
        <ele>1578</ele>
        <time>2016-01-21T11:52:28+01:00</time>
      </trkpt>
      <trkpt lat="42.93267" lon="0.31891">
        <ele>1571</ele>
        <time>2016-01-21T11:52:59+01:00</time>
      </trkpt>
      <trkpt lat="42.93236" lon="0.31859">
        <ele>1567</ele>
        <time>2016-01-21T11:53:30+01:00</time>
      </trkpt>
      <trkpt lat="42.93202" lon="0.31882">
        <ele>1569</ele>
        <time>2016-01-21T11:54:02+01:00</time>
      </trkpt>
      <trkpt lat="42.93163" lon="0.31892">
        <ele>1568</ele>
        <time>2016-01-21T11:54:37+01:00</time>
      </trkpt>
      <trkpt lat="42.93124" lon="0.319">
        <ele>1562</ele>
        <time>2016-01-21T11:56:47+01:00</time>
      </trkpt>
      <trkpt lat="42.93086" lon="0.31904">
        <ele>1555</ele>
        <time>2016-01-21T11:57:16+01:00</time>
      </trkpt>
      <trkpt lat="42.9305" lon="0.31906">
        <ele>1563</ele>
        <time>2016-01-21T11:57:45+01:00</time>
      </trkpt>
      <trkpt lat="42.93013" lon="0.31888">
        <ele>1565</ele>
        <time>2016-01-21T11:58:16+01:00</time>
      </trkpt>
      <trkpt lat="42.92982" lon="0.31861">
        <ele>1566</ele>
        <time>2016-01-21T11:58:51+01:00</time>
      </trkpt>
      <trkpt lat="42.9293" lon="0.31811">
        <ele>1573</ele>
        <time>2016-01-21T11:59:48+01:00</time>
      </trkpt>
      <trkpt lat="42.92893" lon="0.3178">
        <ele>1573</ele>
        <time>2016-01-21T12:00:21+01:00</time>
      </trkpt>
      <trkpt lat="42.92866" lon="0.3173">
        <ele>1564</ele>
        <time>2016-01-21T12:00:57+01:00</time>
      </trkpt>
      <trkpt lat="42.9282" lon="0.31719">
        <ele>1573</ele>
        <time>2016-01-21T12:01:43+01:00</time>
      </trkpt>
      <trkpt lat="42.92761" lon="0.31716">
        <ele>1581</ele>
        <time>2016-01-21T12:02:31+01:00</time>
      </trkpt>
      <trkpt lat="42.92716" lon="0.31716">
        <ele>1588</ele>
        <time>2016-01-21T12:03:10+01:00</time>
      </trkpt>
      <trkpt lat="42.9269" lon="0.317">
        <ele>1588</ele>
        <time>2016-01-21T12:08:20+01:00</time>
      </trkpt>
      <trkpt lat="42.92652" lon="0.3168">
        <ele>1592</ele>
        <time>2016-01-21T12:09:09+01:00</time>
      </trkpt>
      <trkpt lat="42.92613" lon="0.31669">
        <ele>1598</ele>
        <time>2016-01-21T12:09:58+01:00</time>
      </trkpt>
      <trkpt lat="42.92575" lon="0.31649">
        <ele>1603</ele>
        <time>2016-01-21T12:10:50+01:00</time>
      </trkpt>
      <trkpt lat="42.92543" lon="0.31629">
        <ele>1609</ele>
        <time>2016-01-21T12:11:53+01:00</time>
      </trkpt>
      <trkpt lat="42.92511" lon="0.31602">
        <ele>1618</ele>
        <time>2016-01-21T12:12:41+01:00</time>
      </trkpt>
      <trkpt lat="42.92488" lon="0.31569">
        <ele>1622</ele>
        <time>2016-01-21T12:13:35+01:00</time>
      </trkpt>
      <trkpt lat="42.92462" lon="0.31539">
        <ele>1625</ele>
        <time>2016-01-21T12:14:29+01:00</time>
      </trkpt>
      <trkpt lat="42.92431" lon="0.31512">
        <ele>1633</ele>
        <time>2016-01-21T12:15:24+01:00</time>
      </trkpt>
      <trkpt lat="42.92399" lon="0.31492">
        <ele>1641</ele>
        <time>2016-01-21T12:16:32+01:00</time>
      </trkpt>
      <trkpt lat="42.92374" lon="0.31499">
        <ele>1652</ele>
        <time>2016-01-21T12:17:41+01:00</time>
      </trkpt>
      <trkpt lat="42.92353" lon="0.31492">
        <ele>1658</ele>
        <time>2016-01-21T12:18:53+01:00</time>
      </trkpt>
      <trkpt lat="42.92329" lon="0.31489">
        <ele>1665</ele>
        <time>2016-01-21T12:19:59+01:00</time>
      </trkpt>
      <trkpt lat="42.92296" lon="0.31488">
        <ele>1672</ele>
        <time>2016-01-21T12:21:05+01:00</time>
      </trkpt>
      <trkpt lat="42.92264" lon="0.31476">
        <ele>1677</ele>
        <time>2016-01-21T12:22:04+01:00</time>
      </trkpt>
      <trkpt lat="42.92233" lon="0.3145">
        <ele>1684</ele>
        <time>2016-01-21T12:22:55+01:00</time>
      </trkpt>
      <trkpt lat="42.92207" lon="0.31427">
        <ele>1691</ele>
        <time>2016-01-21T12:25:43+01:00</time>
      </trkpt>
      <trkpt lat="42.92178" lon="0.31412">
        <ele>1699</ele>
        <time>2016-01-21T12:26:50+01:00</time>
      </trkpt>
      <trkpt lat="42.92144" lon="0.31402">
        <ele>1706</ele>
        <time>2016-01-21T12:27:41+01:00</time>
      </trkpt>
      <trkpt lat="42.92108" lon="0.3139">
        <ele>1712</ele>
        <time>2016-01-21T12:28:37+01:00</time>
      </trkpt>
      <trkpt lat="42.92073" lon="0.31374">
        <ele>1719</ele>
        <time>2016-01-21T12:29:28+01:00</time>
      </trkpt>
      <trkpt lat="42.92038" lon="0.31361">
        <ele>1725</ele>
        <time>2016-01-21T12:30:21+01:00</time>
      </trkpt>
      <trkpt lat="42.92003" lon="0.31363">
        <ele>1733</ele>
        <time>2016-01-21T12:31:16+01:00</time>
      </trkpt>
      <trkpt lat="42.91967" lon="0.31362">
        <ele>1736</ele>
        <time>2016-01-21T12:32:04+01:00</time>
      </trkpt>
      <trkpt lat="42.91939" lon="0.31361">
        <ele>1738</ele>
        <time>2016-01-21T12:49:29+01:00</time>
      </trkpt>
      <trkpt lat="42.91905" lon="0.31353">
        <ele>1738</ele>
        <time>2016-01-21T12:50:22+01:00</time>
      </trkpt>
      <trkpt lat="42.91871" lon="0.31336">
        <ele>1736</ele>
        <time>2016-01-21T12:51:01+01:00</time>
      </trkpt>
      <trkpt lat="42.91837" lon="0.31325">
        <ele>1734</ele>
        <time>2016-01-21T12:51:39+01:00</time>
      </trkpt>
      <trkpt lat="42.91805" lon="0.31331">
        <ele>1728</ele>
        <time>2016-01-21T12:52:23+01:00</time>
      </trkpt>
      <trkpt lat="42.91775" lon="0.31308">
        <ele>1721</ele>
        <time>2016-01-21T12:54:21+01:00</time>
      </trkpt>
      <trkpt lat="42.91746" lon="0.31283">
        <ele>1712</ele>
        <time>2016-01-21T12:55:12+01:00</time>
      </trkpt>
      <trkpt lat="42.91717" lon="0.31257">
        <ele>1700</ele>
        <time>2016-01-21T12:56:27+01:00</time>
      </trkpt>
      <trkpt lat="42.91686" lon="0.31236">
        <ele>1685</ele>
        <time>2016-01-21T12:57:08+01:00</time>
      </trkpt>
      <trkpt lat="42.91654" lon="0.31215">
        <ele>1670</ele>
        <time>2016-01-21T12:57:48+01:00</time>
      </trkpt>
      <trkpt lat="42.91623" lon="0.31192">
        <ele>1655</ele>
        <time>2016-01-21T12:58:29+01:00</time>
      </trkpt>
      <trkpt lat="42.91595" lon="0.31168">
        <ele>1644</ele>
        <time>2016-01-21T12:59:07+01:00</time>
      </trkpt>
      <trkpt lat="42.91565" lon="0.31143">
        <ele>1630</ele>
        <time>2016-01-21T13:03:38+01:00</time>
      </trkpt>
      <trkpt lat="42.91532" lon="0.31131">
        <ele>1620</ele>
        <time>2016-01-21T13:04:23+01:00</time>
      </trkpt>
      <trkpt lat="42.915" lon="0.31112">
        <ele>1610</ele>
        <time>2016-01-21T13:05:05+01:00</time>
      </trkpt>
      <trkpt lat="42.91471" lon="0.31079">
        <ele>1603</ele>
        <time>2016-01-21T13:05:43+01:00</time>
      </trkpt>
      <trkpt lat="42.91439" lon="0.31055">
        <ele>1598</ele>
        <time>2016-01-21T13:06:19+01:00</time>
      </trkpt>
      <trkpt lat="42.91409" lon="0.31029">
        <ele>1593</ele>
        <time>2016-01-21T13:06:54+01:00</time>
      </trkpt>
      <trkpt lat="42.91375" lon="0.31008">
        <ele>1594</ele>
        <time>2016-01-21T13:07:31+01:00</time>
      </trkpt>
      <trkpt lat="42.91348" lon="0.30972">
        <ele>1592</ele>
        <time>2016-01-21T13:08:05+01:00</time>
      </trkpt>
      <trkpt lat="42.9132" lon="0.30942">
        <ele>1594</ele>
        <time>2016-01-21T13:08:44+01:00</time>
      </trkpt>
      <trkpt lat="42.91303" lon="0.30903">
        <ele>1594</ele>
        <time>2016-01-21T13:09:19+01:00</time>
      </trkpt>
      <trkpt lat="42.91298" lon="0.30856">
        <ele>1590</ele>
        <time>2016-01-21T13:10:08+01:00</time>
      </trkpt>
      <trkpt lat="42.91291" lon="0.3081">
        <ele>1586</ele>
        <time>2016-01-21T13:11:09+01:00</time>
      </trkpt>
      <trkpt lat="42.91272" lon="0.3077">
        <ele>1586</ele>
        <time>2016-01-21T13:12:03+01:00</time>
      </trkpt>
      <trkpt lat="42.91244" lon="0.30737">
        <ele>1589</ele>
        <time>2016-01-21T13:12:50+01:00</time>
      </trkpt>
      <trkpt lat="42.9122" lon="0.30698">
        <ele>1584</ele>
        <time>2016-01-21T13:13:45+01:00</time>
      </trkpt>
      <trkpt lat="42.91199" lon="0.30662">
        <ele>1580</ele>
        <time>2016-01-21T13:14:38+01:00</time>
      </trkpt>
      <trkpt lat="42.91181" lon="0.30624">
        <ele>1573</ele>
        <time>2016-01-21T13:16:59+01:00</time>
      </trkpt>
      <trkpt lat="42.91161" lon="0.30587">
        <ele>1567</ele>
        <time>2016-01-21T13:17:42+01:00</time>
      </trkpt>
      <trkpt lat="42.91132" lon="0.30553">
        <ele>1559</ele>
        <time>2016-01-21T13:18:24+01:00</time>
      </trkpt>
      <trkpt lat="42.91104" lon="0.30523">
        <ele>1551</ele>
        <time>2016-01-21T13:19:09+01:00</time>
      </trkpt>
      <trkpt lat="42.91087" lon="0.30482">
        <ele>1541</ele>
        <time>2016-01-21T13:20:06+01:00</time>
      </trkpt>
      <trkpt lat="42.91068" lon="0.3045">
        <ele>1533</ele>
        <time>2016-01-21T13:21:09+01:00</time>
      </trkpt>
      <trkpt lat="42.91046" lon="0.30412">
        <ele>1525</ele>
        <time>2016-01-21T13:22:14+01:00</time>
      </trkpt>
      <trkpt lat="42.91021" lon="0.30386">
        <ele>1519</ele>
        <time>2016-01-21T13:23:14+01:00</time>
      </trkpt>
      <trkpt lat="42.91013" lon="0.30345">
        <ele>1508</ele>
        <time>2016-01-21T13:27:26+01:00</time>
      </trkpt>
      <trkpt lat="42.91014" lon="0.30307">
        <ele>1498</ele>
        <time>2016-01-21T13:28:20+01:00</time>
      </trkpt>
      <trkpt lat="42.90991" lon="0.30272">
        <ele>1494</ele>
        <time>2016-01-21T13:29:14+01:00</time>
      </trkpt>
      <trkpt lat="42.90993" lon="0.30223">
        <ele>1483</ele>
        <time>2016-01-21T13:30:10+01:00</time>
      </trkpt>
      <trkpt lat="42.91014" lon="0.30191">
        <ele>1473</ele>
        <time>2016-01-21T13:31:09+01:00</time>
      </trkpt>
      <trkpt lat="42.91045" lon="0.30173">
        <ele>1463</ele>
        <time>2016-01-21T13:32:15+01:00</time>
      </trkpt>
      <trkpt lat="42.91072" lon="0.30162">
        <ele>1456</ele>
        <time>2016-01-21T13:33:27+01:00</time>
      </trkpt>
      <trkpt lat="42.91097" lon="0.30125">
        <ele>1446</ele>
        <time>2016-01-21T13:34:27+01:00</time>
      </trkpt>
      <trkpt lat="42.91126" lon="0.30095">
        <ele>1437</ele>
        <time>2016-01-21T13:35:28+01:00</time>
      </trkpt>
      <trkpt lat="42.91154" lon="0.30069">
        <ele>1430</ele>
        <time>2016-01-21T13:37:11+01:00</time>
      </trkpt>
      <trkpt lat="42.91175" lon="0.30029">
        <ele>1425</ele>
        <time>2016-01-21T13:37:58+01:00</time>
      </trkpt>
      <trkpt lat="42.91196" lon="0.29991">
        <ele>1424</ele>
        <time>2016-01-21T13:39:06+01:00</time>
      </trkpt>
      <trkpt lat="42.91202" lon="0.29965">
        <ele>1422</ele>
        <time>2016-01-21T13:39:49+01:00</time>
      </trkpt>
      <trkpt lat="42.912" lon="0.29966">
        <ele>1421</ele>
        <time>2016-01-21T14:44:58+01:00</time>
      </trkpt>
      <trkpt lat="42.91207" lon="0.29915">
        <ele>1417</ele>
        <time>2016-01-21T14:46:59+01:00</time>
      </trkpt>
      <trkpt lat="42.91233" lon="0.29876">
        <ele>1414</ele>
        <time>2016-01-21T14:47:31+01:00</time>
      </trkpt>
      <trkpt lat="42.91256" lon="0.29838">
        <ele>1409</ele>
        <time>2016-01-21T14:48:02+01:00</time>
      </trkpt>
      <trkpt lat="42.91271" lon="0.29792">
        <ele>1404</ele>
        <time>2016-01-21T14:48:35+01:00</time>
      </trkpt>
      <trkpt lat="42.91304" lon="0.29778">
        <ele>1399</ele>
        <time>2016-01-21T14:49:59+01:00</time>
      </trkpt>
      <trkpt lat="42.91344" lon="0.2977">
        <ele>1394</ele>
        <time>2016-01-21T14:51:05+01:00</time>
      </trkpt>
      <trkpt lat="42.91382" lon="0.29738">
        <ele>1390</ele>
        <time>2016-01-21T14:51:47+01:00</time>
      </trkpt>
      <trkpt lat="42.91418" lon="0.29699">
        <ele>1382</ele>
        <time>2016-01-21T14:52:29+01:00</time>
      </trkpt>
      <trkpt lat="42.91459" lon="0.29655">
        <ele>1375</ele>
        <time>2016-01-21T14:53:15+01:00</time>
      </trkpt>
      <trkpt lat="42.91502" lon="0.2962">
        <ele>1367</ele>
        <time>2016-01-21T14:53:57+01:00</time>
      </trkpt>
      <trkpt lat="42.91544" lon="0.29591">
        <ele>1353</ele>
        <time>2016-01-21T14:54:40+01:00</time>
      </trkpt>
      <trkpt lat="42.91589" lon="0.29563">
        <ele>1339</ele>
        <time>2016-01-21T14:55:23+01:00</time>
      </trkpt>
      <trkpt lat="42.91634" lon="0.2954">
        <ele>1328</ele>
        <time>2016-01-21T14:56:08+01:00</time>
      </trkpt>
      <trkpt lat="42.91693" lon="0.29524">
        <ele>1319</ele>
        <time>2016-01-21T14:58:20+01:00</time>
      </trkpt>
      <trkpt lat="42.91761" lon="0.29527">
        <ele>1313</ele>
        <time>2016-01-21T14:59:29+01:00</time>
      </trkpt>
      <trkpt lat="42.91799" lon="0.29567">
        <ele>1313</ele>
        <time>2016-01-21T15:00:09+01:00</time>
      </trkpt>
      <trkpt lat="42.91834" lon="0.29597">
        <ele>1309</ele>
        <time>2016-01-21T15:00:46+01:00</time>
      </trkpt>
      <trkpt lat="42.91862" lon="0.29632">
        <ele>1306</ele>
        <time>2016-01-21T15:01:29+01:00</time>
      </trkpt>
      <trkpt lat="42.91891" lon="0.29665">
        <ele>1302</ele>
        <time>2016-01-21T15:02:02+01:00</time>
      </trkpt>
      <trkpt lat="42.91926" lon="0.29689">
        <ele>1297</ele>
        <time>2016-01-21T15:02:36+01:00</time>
      </trkpt>
      <trkpt lat="42.91962" lon="0.29696">
        <ele>1293</ele>
        <time>2016-01-21T15:03:35+01:00</time>
      </trkpt>
      <trkpt lat="42.91997" lon="0.29713">
        <ele>1291</ele>
        <time>2016-01-21T15:04:19+01:00</time>
      </trkpt>
      <trkpt lat="42.92035" lon="0.29707">
        <ele>1289</ele>
        <time>2016-01-21T15:04:54+01:00</time>
      </trkpt>
      <trkpt lat="42.92073" lon="0.29716">
        <ele>1289</ele>
        <time>2016-01-21T15:05:30+01:00</time>
      </trkpt>
      <trkpt lat="42.9211" lon="0.29706">
        <ele>1290</ele>
        <time>2016-01-21T15:06:05+01:00</time>
      </trkpt>
      <trkpt lat="42.92148" lon="0.29691">
        <ele>1290</ele>
        <time>2016-01-21T15:06:42+01:00</time>
      </trkpt>
      <trkpt lat="42.92183" lon="0.29671">
        <ele>1289</ele>
        <time>2016-01-21T15:07:21+01:00</time>
      </trkpt>
      <trkpt lat="42.92225" lon="0.29654">
        <ele>1291</ele>
        <time>2016-01-21T15:08:56+01:00</time>
      </trkpt>
      <trkpt lat="42.92273" lon="0.29622">
        <ele>1288</ele>
        <time>2016-01-21T15:09:45+01:00</time>
      </trkpt>
      <trkpt lat="42.92319" lon="0.29599">
        <ele>1285</ele>
        <time>2016-01-21T15:10:30+01:00</time>
      </trkpt>
      <trkpt lat="42.9237" lon="0.29587">
        <ele>1281</ele>
        <time>2016-01-21T15:11:20+01:00</time>
      </trkpt>
      <trkpt lat="42.92423" lon="0.2959">
        <ele>1281</ele>
        <time>2016-01-21T15:12:04+01:00</time>
      </trkpt>
      <trkpt lat="42.92471" lon="0.29591">
        <ele>1276</ele>
        <time>2016-01-21T15:12:51+01:00</time>
      </trkpt>
      <trkpt lat="42.92518" lon="0.29601">
        <ele>1274</ele>
        <time>2016-01-21T15:13:35+01:00</time>
      </trkpt>
      <trkpt lat="42.92562" lon="0.29621">
        <ele>1272</ele>
        <time>2016-01-21T15:14:20+01:00</time>
      </trkpt>
      <trkpt lat="42.92613" lon="0.29639">
        <ele>1269</ele>
        <time>2016-01-21T15:15:05+01:00</time>
      </trkpt>
      <trkpt lat="42.92652" lon="0.29642">
        <ele>1263</ele>
        <time>2016-01-21T15:19:31+01:00</time>
      </trkpt>
      <trkpt lat="42.92702" lon="0.29617">
        <ele>1249</ele>
        <time>2016-01-21T15:20:24+01:00</time>
      </trkpt>
      <trkpt lat="42.92719" lon="0.296">
        <ele>1244</ele>
        <time>2016-01-21T15:35:26+01:00</time>
      </trkpt>
      <trkpt lat="42.92685" lon="0.29571">
        <ele>1242</ele>
        <time>2016-01-21T15:36:04+01:00</time>
      </trkpt>
      <trkpt lat="42.9265" lon="0.29548">
        <ele>1240</ele>
        <time>2016-01-21T15:36:35+01:00</time>
      </trkpt>
      <trkpt lat="42.92612" lon="0.29528">
        <ele>1239</ele>
        <time>2016-01-21T15:37:07+01:00</time>
      </trkpt>
      <trkpt lat="42.92575" lon="0.29503">
        <ele>1236</ele>
        <time>2016-01-21T15:37:37+01:00</time>
      </trkpt>
      <trkpt lat="42.92539" lon="0.29477">
        <ele>1234</ele>
        <time>2016-01-21T15:38:08+01:00</time>
      </trkpt>
      <trkpt lat="42.92504" lon="0.29449">
        <ele>1232</ele>
        <time>2016-01-21T15:38:38+01:00</time>
      </trkpt>
      <trkpt lat="42.92474" lon="0.29419">
        <ele>1228</ele>
        <time>2016-01-21T15:39:08+01:00</time>
      </trkpt>
      <trkpt lat="42.92446" lon="0.29385">
        <ele>1226</ele>
        <time>2016-01-21T15:39:38+01:00</time>
      </trkpt>
      <trkpt lat="42.9241" lon="0.2936">
        <ele>1225</ele>
        <time>2016-01-21T15:40:07+01:00</time>
      </trkpt>
      <trkpt lat="42.92377" lon="0.2934">
        <ele>1223</ele>
        <time>2016-01-21T15:40:35+01:00</time>
      </trkpt>
      <trkpt lat="42.92354" lon="0.29327">
        <ele>1222</ele>
        <time>2016-01-21T15:41:11+01:00</time>
      </trkpt>
      <trkpt lat="42.92395" lon="0.29308">
        <ele>1221</ele>
        <time>2016-01-21T15:41:43+01:00</time>
      </trkpt>
      <trkpt lat="42.9245" lon="0.29284">
        <ele>1218</ele>
        <time>2016-01-21T15:44:04+01:00</time>
      </trkpt>
      <trkpt lat="42.92497" lon="0.29279">
        <ele>1216</ele>
        <time>2016-01-21T15:44:33+01:00</time>
      </trkpt>
      <trkpt lat="42.92537" lon="0.29284">
        <ele>1211</ele>
        <time>2016-01-21T15:45:02+01:00</time>
      </trkpt>
      <trkpt lat="42.92578" lon="0.29297">
        <ele>1205</ele>
        <time>2016-01-21T15:45:30+01:00</time>
      </trkpt>
      <trkpt lat="42.92617" lon="0.29313">
        <ele>1201</ele>
        <time>2016-01-21T15:45:57+01:00</time>
      </trkpt>
      <trkpt lat="42.92654" lon="0.29328">
        <ele>1197</ele>
        <time>2016-01-21T15:48:05+01:00</time>
      </trkpt>
      <trkpt lat="42.92693" lon="0.29336">
        <ele>1192</ele>
        <time>2016-01-21T15:48:32+01:00</time>
      </trkpt>
      <trkpt lat="42.92733" lon="0.29346">
        <ele>1189</ele>
        <time>2016-01-21T15:49:00+01:00</time>
      </trkpt>
      <trkpt lat="42.92771" lon="0.29356">
        <ele>1186</ele>
        <time>2016-01-21T15:49:29+01:00</time>
      </trkpt>
      <trkpt lat="42.92807" lon="0.29356">
        <ele>1182</ele>
        <time>2016-01-21T15:49:55+01:00</time>
      </trkpt>
      <trkpt lat="42.92845" lon="0.29353">
        <ele>1177</ele>
        <time>2016-01-21T15:50:25+01:00</time>
      </trkpt>
      <trkpt lat="42.92885" lon="0.29357">
        <ele>1174</ele>
        <time>2016-01-21T15:50:54+01:00</time>
      </trkpt>
      <trkpt lat="42.92922" lon="0.29364">
        <ele>1172</ele>
        <time>2016-01-21T15:51:21+01:00</time>
      </trkpt>
      <trkpt lat="42.92959" lon="0.29375">
        <ele>1170</ele>
        <time>2016-01-21T15:51:50+01:00</time>
      </trkpt>
      <trkpt lat="42.92998" lon="0.29373">
        <ele>1167</ele>
        <time>2016-01-21T15:52:29+01:00</time>
      </trkpt>
      <trkpt lat="42.93037" lon="0.29379">
        <ele>1165</ele>
        <time>2016-01-21T15:53:01+01:00</time>
      </trkpt>
      <trkpt lat="42.93076" lon="0.2938">
        <ele>1163</ele>
        <time>2016-01-21T15:53:29+01:00</time>
      </trkpt>
      <trkpt lat="42.93113" lon="0.2938">
        <ele>1160</ele>
        <time>2016-01-21T15:53:57+01:00</time>
      </trkpt>
      <trkpt lat="42.93151" lon="0.29379">
        <ele>1158</ele>
        <time>2016-01-21T15:54:24+01:00</time>
      </trkpt>
      <trkpt lat="42.93191" lon="0.29371">
        <ele>1154</ele>
        <time>2016-01-21T15:54:53+01:00</time>
      </trkpt>
      <trkpt lat="42.93228" lon="0.29364">
        <ele>1150</ele>
        <time>2016-01-21T15:55:21+01:00</time>
      </trkpt>
      <trkpt lat="42.93265" lon="0.29378">
        <ele>1146</ele>
        <time>2016-01-21T15:55:51+01:00</time>
      </trkpt>
      <trkpt lat="42.93302" lon="0.29391">
        <ele>1143</ele>
        <time>2016-01-21T15:56:20+01:00</time>
      </trkpt>
      <trkpt lat="42.93335" lon="0.29426">
        <ele>1139</ele>
        <time>2016-01-21T15:56:51+01:00</time>
      </trkpt>
      <trkpt lat="42.93359" lon="0.29462">
        <ele>1139</ele>
        <time>2016-01-21T15:57:26+01:00</time>
      </trkpt>
      <trkpt lat="42.93364" lon="0.2951">
        <ele>1140</ele>
        <time>2016-01-21T15:57:59+01:00</time>
      </trkpt>
      <trkpt lat="42.93349" lon="0.29556">
        <ele>1140</ele>
        <time>2016-01-21T15:58:53+01:00</time>
      </trkpt>
      <trkpt lat="42.93323" lon="0.29592">
        <ele>1141</ele>
        <time>2016-01-21T15:59:21+01:00</time>
      </trkpt>
      <trkpt lat="42.93294" lon="0.29625">
        <ele>1144</ele>
        <time>2016-01-21T15:59:48+01:00</time>
      </trkpt>
      <trkpt lat="42.93272" lon="0.29668">
        <ele>1143</ele>
        <time>2016-01-21T16:00:15+01:00</time>
      </trkpt>
      <trkpt lat="42.93254" lon="0.29713">
        <ele>1147</ele>
        <time>2016-01-21T16:00:42+01:00</time>
      </trkpt>
      <trkpt lat="42.93272" lon="0.2975">
        <ele>1147</ele>
        <time>2016-01-21T16:01:10+01:00</time>
      </trkpt>
      <trkpt lat="42.93307" lon="0.29765">
        <ele>1145</ele>
        <time>2016-01-21T16:01:44+01:00</time>
      </trkpt>
      <trkpt lat="42.93344" lon="0.29774">
        <ele>1142</ele>
        <time>2016-01-21T16:02:17+01:00</time>
      </trkpt>
      <trkpt lat="42.93375" lon="0.29792">
        <ele>1143</ele>
        <time>2016-01-21T16:03:19+01:00</time>
      </trkpt>
      <trkpt lat="42.93395" lon="0.29831">
        <ele>1144</ele>
        <time>2016-01-21T16:03:47+01:00</time>
      </trkpt>
      <trkpt lat="42.93423" lon="0.29867">
        <ele>1145</ele>
        <time>2016-01-21T16:04:15+01:00</time>
      </trkpt>
      <trkpt lat="42.9345" lon="0.299">
        <ele>1147</ele>
        <time>2016-01-21T16:04:43+01:00</time>
      </trkpt>
      <trkpt lat="42.93464" lon="0.29947">
        <ele>1149</ele>
        <time>2016-01-21T16:05:12+01:00</time>
      </trkpt>
      <trkpt lat="42.93489" lon="0.29985">
        <ele>1149</ele>
        <time>2016-01-21T16:06:02+01:00</time>
      </trkpt>
      <trkpt lat="42.9351" lon="0.30029">
        <ele>1151</ele>
        <time>2016-01-21T16:06:39+01:00</time>
      </trkpt>
      <trkpt lat="42.93531" lon="0.30067">
        <ele>1153</ele>
        <time>2016-01-21T16:07:10+01:00</time>
      </trkpt>
      <trkpt lat="42.93558" lon="0.30104">
        <ele>1155</ele>
        <time>2016-01-21T16:07:42+01:00</time>
      </trkpt>
      <trkpt lat="42.93582" lon="0.30142">
        <ele>1156</ele>
        <time>2016-01-21T16:08:13+01:00</time>
      </trkpt>
      <trkpt lat="42.936" lon="0.30187">
        <ele>1158</ele>
        <time>2016-01-21T16:08:45+01:00</time>
      </trkpt>
      <trkpt lat="42.93621" lon="0.30232">
        <ele>1159</ele>
        <time>2016-01-21T16:09:19+01:00</time>
      </trkpt>
      <trkpt lat="42.93652" lon="0.3027">
        <ele>1160</ele>
        <time>2016-01-21T16:09:54+01:00</time>
      </trkpt>
      <trkpt lat="42.9369" lon="0.30283">
        <ele>1162</ele>
        <time>2016-01-21T16:10:39+01:00</time>
      </trkpt>
      <trkpt lat="42.93721" lon="0.3026">
        <ele>1166</ele>
        <time>2016-01-21T16:13:03+01:00</time>
      </trkpt>
    </trkseg>
  </trk>
</gpx>